Canal Point, Florida
Current Conditions -  °F | °C
As of 11:47 AM on Saturday 25 Oct 2014 (Local Time) from KSUA Reporting Station
Few Clouds Few Clouds  
Wind Chill: 77°   Ceiling: Unl
Heat Index: 79°   Visibility: 7mi
Dew Point: 59°   Wind: 12mph
Humidity: 54%   Direction: 340°NNW
Pressure: 29.95"   Gusts: 16mph
Location:  26.86°N, 80.63°W
Report Text: KSUA 251547Z 34010G14KT 7SM FEW020 25/15 A2995
Loading
Personal Weather Stations






























Interactive Weather Map
Tropical Storm Tracking
New forecast layout! Learn more

10-Day Weather Forecast

Advertisements
Track Severe Weather on mobile